sensor_id;sensor_type;location;lat;lon;timestamp;temperature;humidity
19755;DHT22;10036;47.812;9.274;2023-10-13T00:02:09;13.50;99.90
19755;DHT22;10036;47.812;9.274;2023-10-13T00:04:36;13.50;99.90
19755;DHT22;10036;47.812;9.274;2023-10-13T00:07:04;13.40;99.90
19755;DHT22;10036;47.812;9.274;2023-10-13T00:09:35;13.30;99.90
19755;DHT22;10036;47.812;9.274;2023-10-13T00:12:04;13.10;99.90
19755;DHT22;10036;47.812;9.274;2023-10-13T00:14:34;13.00;99.90
19755;DHT22;10036;47.812;9.274;2023-10-13T00:17:02;12.90;99.90
19755;DHT22;10036;47.812;9.274;2023-10-13T00:19:35;13.00;99.90
19755;DHT22;10036;47.812;9.274;2023-10-13T00:22:12;13.00;99.90
19755;DHT22;10036;47.812;9.274;2023-10-13T00:24:43;12.90;99.90
19755;DHT22;10036;47.812;9.274;2023-10-13T00:27:11;12.70;99.90
19755;DHT22;10036;47.812;9.274;2023-10-13T00:29:55;12.60;99.90
19755;DHT22;10036;47.812;9.274;2023-10-13T00:32:36;12.60;99.90
19755;DHT22;10036;47.812;9.274;2023-10-13T00:35:04;12.60;99.90
19755;DHT22;10036;47.812;9.274;2023-10-13T00:37:31;12.60;99.90
19755;DHT22;10036;47.812;9.274;2023-10-13T00:40:08;12.60;99.90
19755;DHT22;10036;47.812;9.274;2023-10-13T00:42:44;12.70;99.90
19755;DHT22;10036;47.812;9.274;2023-10-13T00:45:16;12.70;99.90
19755;DHT22;10036;47.812;9.274;2023-10-13T00:47:43;12.60;99.90
19755;DHT22;10036;47.812;9.274;2023-10-13T00:50:16;12.70;99.90
19755;DHT22;10036;47.812;9.274;2023-10-13T00:52:44;12.60;99.90
19755;DHT22;10036;47.812;9.274;2023-10-13T00:55:19;12.70;99.90
19755;DHT22;10036;47.812;9.274;2023-10-13T00:57:51;12.70;99.90
19755;DHT22;10036;47.812;9.274;2023-10-13T01:00:19;12.60;99.90
19755;DHT22;10036;47.812;9.274;2023-10-13T01:02:50;12.50;99.90
19755;DHT22;10036;47.812;9.274;2023-10-13T01:05:21;12.30;99.90
19755;DHT22;10036;47.812;9.274;2023-10-13T01:07:49;12.30;99.90
19755;DHT22;10036;47.812;9.274;2023-10-13T01:10:20;12.30;99.90
19755;DHT22;10036;47.812;9.274;2023-10-13T01:12:51;12.20;99.90
19755;DHT22;10036;47.812;9.274;2023-10-13T01:15:18;12.10;99.90
19755;DHT22;10036;47.812;9.274;2023-10-13T01:17:46;12.10;99.90
19755;DHT22;10036;47.812;9.274;2023-10-13T01:20:13;12.30;99.90
19755;DHT22;10036;47.812;9.274;2023-10-13T01:22:46;12.30;99.90
19755;DHT22;10036;47.812;9.274;2023-10-13T01:25:23;12.30;99.90
19755;DHT22;10036;47.812;9.274;2023-10-13T01:27:52;12.10;99.90
19755;DHT22;10036;47.812;9.274;2023-10-13T01:30:18;12.10;99.90
19755;DHT22;10036;47.812;9.274;2023-10-13T01:32:48;12.20;99.90
19755;DHT22;10036;47.812;9.274;2023-10-13T01:35:16;12.20;99.90
19755;DHT22;10036;47.812;9.274;2023-10-13T01:37:44;12.30;99.90
19755;DHT22;10036;47.812;9.274;2023-10-13T01:40:11;12.30;99.90
19755;DHT22;10036;47.812;9.274;2023-10-13T01:42:39;12.30;99.90
19755;DHT22;10036;47.812;9.274;2023-10-13T01:45:06;12.30;99.90
19755;DHT22;10036;47.812;9.274;2023-10-13T01:47:33;12.30;99.90
19755;DHT22;10036;47.812;9.274;2023-10-13T01:49:59;12.30;99.90
19755;DHT22;10036;47.812;9.274;2023-10-13T01:52:38;12.20;99.90
19755;DHT22;10036;47.812;9.274;2023-10-13T01:55:08;12.20;99.90
19755;DHT22;10036;47.812;9.274;2023-10-13T01:57:38;12.30;99.90
19755;DHT22;10036;47.812;9.274;2023-10-13T02:00:07;12.00;99.90
19755;DHT22;10036;47.812;9.274;2023-10-13T02:02:44;12.10;99.90
19755;DHT22;10036;47.812;9.274;2023-10-13T02:05:15;12.00;99.90
19755;DHT22;10036;47.812;9.274;2023-10-13T02:07:42;11.90;99.90
19755;DHT22;10036;47.812;9.274;2023-10-13T02:10:12;11.60;99.90
19755;DHT22;10036;47.812;9.274;2023-10-13T02:12:39;11.40;99.90
19755;DHT22;10036;47.812;9.274;2023-10-13T02:15:10;11.50;99.90
19755;DHT22;10036;47.812;9.274;2023-10-13T02:17:38;11.60;99.90
19755;DHT22;10036;47.812;9.274;2023-10-13T02:20:08;11.80;99.90
19755;DHT22;10036;47.812;9.274;2023-10-13T02:22:36;11.80;99.90
19755;DHT22;10036;47.812;9.274;2023-10-13T02:25:04;11.70;99.90
19755;DHT22;10036;47.812;9.274;2023-10-13T02:27:33;11.60;99.90
19755;DHT22;10036;47.812;9.274;2023-10-13T02:30:08;11.70;99.90
19755;DHT22;10036;47.812;9.274;2023-10-13T02:32:39;11.80;99.90
19755;DHT22;10036;47.812;9.274;2023-10-13T02:35:09;11.80;99.90
19755;DHT22;10036;47.812;9.274;2023-10-13T02:37:41;11.70;99.90
19755;DHT22;10036;47.812;9.274;2023-10-13T02:40:10;11.80;99.90
19755;DHT22;10036;47.812;9.274;2023-10-13T02:42:36;11.70;99.90
19755;DHT22;10036;47.812;9.274;2023-10-13T02:45:07;11.70;99.90
19755;DHT22;10036;47.812;9.274;2023-10-13T02:47:36;11.70;99.90
19755;DHT22;10036;47.812;9.274;2023-10-13T02:50:04;11.50;99.90
19755;DHT22;10036;47.812;9.274;2023-10-13T02:52:37;11.50;99.90
19755;DHT22;10036;47.812;9.274;2023-10-13T02:55:07;11.50;99.90
19755;DHT22;10036;47.812;9.274;2023-10-13T02:57:35;11.70;99.90
19755;DHT22;10036;47.812;9.274;2023-10-13T03:00:03;11.70;99.90
19755;DHT22;10036;47.812;9.274;2023-10-13T03:02:39;11.80;99.90
19755;DHT22;10036;47.812;9.274;2023-10-13T03:05:16;11.80;99.90
19755;DHT22;10036;47.812;9.274;2023-10-13T03:07:43;11.80;99.90
19755;DHT22;10036;47.812;9.274;2023-10-13T03:10:09;11.80;99.90
19755;DHT22;10036;47.812;9.274;2023-10-13T03:12:37;11.80;99.90
19755;DHT22;10036;47.812;9.274;2023-10-13T03:15:04;11.90;99.90
19755;DHT22;10036;47.812;9.274;2023-10-13T03:17:44;11.80;99.90
19755;DHT22;10036;47.812;9.274;2023-10-13T03:20:11;11.70;99.90
19755;DHT22;10036;47.812;9.274;2023-10-13T03:22:40;11.60;99.90
19755;DHT22;10036;47.812;9.274;2023-10-13T03:25:06;11.60;99.90
19755;DHT22;10036;47.812;9.274;2023-10-13T03:27:38;11.50;99.90
19755;DHT22;10036;47.812;9.274;2023-10-13T03:30:14;11.30;99.90
19755;DHT22;10036;47.812;9.274;2023-10-13T03:32:43;11.30;99.90
19755;DHT22;10036;47.812;9.274;2023-10-13T03:35:12;11.30;99.90
19755;DHT22;10036;47.812;9.274;2023-10-13T03:37:42;11.40;99.90
19755;DHT22;10036;47.812;9.274;2023-10-13T03:40:10;11.60;99.90
19755;DHT22;10036;47.812;9.274;2023-10-13T03:43:00;11.30;99.90
19755;DHT22;10036;47.812;9.274;2023-10-13T03:45:30;11.40;99.90
19755;DHT22;10036;47.812;9.274;2023-10-13T03:48:05;11.40;99.90
19755;DHT22;10036;47.812;9.274;2023-10-13T03:50:35;11.20;99.90
19755;DHT22;10036;47.812;9.274;2023-10-13T03:53:03;11.00;99.90
19755;DHT22;10036;47.812;9.274;2023-10-13T03:55:31;10.80;99.90
19755;DHT22;10036;47.812;9.274;2023-10-13T03:58:01;10.80;99.90
19755;DHT22;10036;47.812;9.274;2023-10-13T04:00:29;10.80;99.90
19755;DHT22;10036;47.812;9.274;2023-10-13T04:02:57;10.90;99.90
19755;DHT22;10036;47.812;9.274;2023-10-13T04:05:36;10.80;99.90
19755;DHT22;10036;47.812;9.274;2023-10-13T04:08:10;10.90;99.90
19755;DHT22;10036;47.812;9.274;2023-10-13T04:10:55;11.10;99.90
19755;DHT22;10036;47.812;9.274;2023-10-13T04:13:40;11.10;99.90
19755;DHT22;10036;47.812;9.274;2023-10-13T04:16:24;11.10;99.90
19755;DHT22;10036;47.812;9.274;2023-10-13T04:19:13;10.90;99.90
19755;DHT22;10036;47.812;9.274;2023-10-13T04:21:50;10.80;99.90
19755;DHT22;10036;47.812;9.274;2023-10-13T04:24:39;10.90;99.90
19755;DHT22;10036;47.812;9.274;2023-10-13T04:27:20;10.90;99.90
19755;DHT22;10036;47.812;9.274;2023-10-13T04:30:07;11.00;99.90
19755;DHT22;10036;47.812;9.274;2023-10-13T04:32:50;10.80;99.90
19755;DHT22;10036;47.812;9.274;2023-10-13T04:35:30;10.70;99.90
19755;DHT22;10036;47.812;9.274;2023-10-13T04:38:03;10.70;99.90
19755;DHT22;10036;47.812;9.274;2023-10-13T04:40:43;10.70;99.90
19755;DHT22;10036;47.812;9.274;2023-10-13T04:43:24;10.80;99.90
19755;DHT22;10036;47.812;9.274;2023-10-13T04:45:59;10.60;99.90
19755;DHT22;10036;47.812;9.274;2023-10-13T04:48:40;10.40;99.90
19755;DHT22;10036;47.812;9.274;2023-10-13T04:51:12;10.40;99.90
19755;DHT22;10036;47.812;9.274;2023-10-13T04:54:11;10.50;99.90
19755;DHT22;10036;47.812;9.274;2023-10-13T04:56:51;10.60;99.90
19755;DHT22;10036;47.812;9.274;2023-10-13T04:59:46;10.70;99.90
19755;DHT22;10036;47.812;9.274;2023-10-13T05:02:30;10.60;99.90
19755;DHT22;10036;47.812;9.274;2023-10-13T05:05:15;10.80;99.90
19755;DHT22;10036;47.812;9.274;2023-10-13T05:08:11;10.90;99.90
19755;DHT22;10036;47.812;9.274;2023-10-13T05:10:56;10.90;99.90
19755;DHT22;10036;47.812;9.274;2023-10-13T05:13:40;10.80;99.90
19755;DHT22;10036;47.812;9.274;2023-10-13T05:16:24;10.90;99.90
19755;DHT22;10036;47.812;9.274;2023-10-13T05:19:08;10.70;99.90
19755;DHT22;10036;47.812;9.274;2023-10-13T05:22:04;10.70;99.90
19755;DHT22;10036;47.812;9.274;2023-10-13T05:24:49;10.80;99.90
19755;DHT22;10036;47.812;9.274;2023-10-13T05:27:34;10.90;99.90
19755;DHT22;10036;47.812;9.274;2023-10-13T05:30:19;10.90;99.90
19755;DHT22;10036;47.812;9.274;2023-10-13T05:33:03;10.90;99.90
19755;DHT22;10036;47.812;9.274;2023-10-13T05:35:47;10.90;99.90
19755;DHT22;10036;47.812;9.274;2023-10-13T05:38:31;10.90;99.90
19755;DHT22;10036;47.812;9.274;2023-10-13T05:41:15;10.80;99.90
19755;DHT22;10036;47.812;9.274;2023-10-13T05:44:01;10.60;99.90
19755;DHT22;10036;47.812;9.274;2023-10-13T05:46:45;10.50;99.90
19755;DHT22;10036;47.812;9.274;2023-10-13T05:49:32;10.40;99.90
19755;DHT22;10036;47.812;9.274;2023-10-13T05:52:16;10.40;99.90
19755;DHT22;10036;47.812;9.274;2023-10-13T05:54:46;10.40;99.90
19755;DHT22;10036;47.812;9.274;2023-10-13T05:57:30;10.40;99.90
19755;DHT22;10036;47.812;9.274;2023-10-13T06:00:16;10.40;99.90
19755;DHT22;10036;47.812;9.274;2023-10-13T06:03:01;10.50;99.90
19755;DHT22;10036;47.812;9.274;2023-10-13T06:05:45;10.60;99.90
19755;DHT22;10036;47.812;9.274;2023-10-13T06:08:30;10.60;99.90
19755;DHT22;10036;47.812;9.274;2023-10-13T06:11:13;10.50;99.90
19755;DHT22;10036;47.812;9.274;2023-10-13T06:13:57;10.50;99.90
19755;DHT22;10036;47.812;9.274;2023-10-13T06:16:43;10.60;99.90
19755;DHT22;10036;47.812;9.274;2023-10-13T06:19:27;10.70;99.90
19755;DHT22;10036;47.812;9.274;2023-10-13T06:22:11;10.60;99.90
19755;DHT22;10036;47.812;9.274;2023-10-13T06:24:55;10.70;99.90
19755;DHT22;10036;47.812;9.274;2023-10-13T06:27:39;10.70;99.90
19755;DHT22;10036;47.812;9.274;2023-10-13T06:30:24;10.90;99.90
19755;DHT22;10036;47.812;9.274;2023-10-13T06:32:52;10.90;99.90
19755;DHT22;10036;47.812;9.274;2023-10-13T06:35:19;10.90;99.90
19755;DHT22;10036;47.812;9.274;2023-10-13T06:37:49;11.00;99.90
19755;DHT22;10036;47.812;9.274;2023-10-13T06:40:15;11.00;99.90
19755;DHT22;10036;47.812;9.274;2023-10-13T06:43:00;11.10;99.90
19755;DHT22;10036;47.812;9.274;2023-10-13T06:45:38;11.00;99.90
19755;DHT22;10036;47.812;9.274;2023-10-13T06:48:08;11.00;99.90
19755;DHT22;10036;47.812;9.274;2023-10-13T06:50:37;11.10;99.90
19755;DHT22;10036;47.812;9.274;2023-10-13T06:53:07;11.20;99.90
19755;DHT22;10036;47.812;9.274;2023-10-13T06:55:38;11.20;99.90
19755;DHT22;10036;47.812;9.274;2023-10-13T06:58:05;11.30;99.90
19755;DHT22;10036;47.812;9.274;2023-10-13T07:00:32;11.30;99.90
19755;DHT22;10036;47.812;9.274;2023-10-13T07:03:00;11.40;99.90
19755;DHT22;10036;47.812;9.274;2023-10-13T07:05:36;11.40;99.90
19755;DHT22;10036;47.812;9.274;2023-10-13T07:08:05;11.50;99.90
19755;DHT22;10036;47.812;9.274;2023-10-13T07:10:32;11.50;99.90
19755;DHT22;10036;47.812;9.274;2023-10-13T07:13:10;11.60;99.90
19755;DHT22;10036;47.812;9.274;2023-10-13T07:15:39;11.60;99.90
19755;DHT22;10036;47.812;9.274;2023-10-13T07:18:11;11.70;99.90
19755;DHT22;10036;47.812;9.274;2023-10-13T07:20:40;11.80;99.90
19755;DHT22;10036;47.812;9.274;2023-10-13T07:23:11;11.80;99.90
19755;DHT22;10036;47.812;9.274;2023-10-13T07:25:51;12.00;99.90
19755;DHT22;10036;47.812;9.274;2023-10-13T07:28:19;12.10;99.90
19755;DHT22;10036;47.812;9.274;2023-10-13T07:30:46;12.30;99.90
19755;DHT22;10036;47.812;9.274;2023-10-13T07:33:36;12.50;99.90
19755;DHT22;10036;47.812;9.274;2023-10-13T07:36:05;12.80;99.90
19755;DHT22;10036;47.812;9.274;2023-10-13T07:38:41;13.00;99.90
19755;DHT22;10036;47.812;9.274;2023-10-13T07:41:13;13.20;99.90
19755;DHT22;10036;47.812;9.274;2023-10-13T07:43:41;13.30;99.90
19755;DHT22;10036;47.812;9.274;2023-10-13T07:46:10;13.50;99.90
19755;DHT22;10036;47.812;9.274;2023-10-13T07:48:37;13.50;99.90
19755;DHT22;10036;47.812;9.274;2023-10-13T07:51:08;13.70;99.90
19755;DHT22;10036;47.812;9.274;2023-10-13T07:53:36;13.80;99.90
19755;DHT22;10036;47.812;9.274;2023-10-13T07:56:06;13.90;99.90
19755;DHT22;10036;47.812;9.274;2023-10-13T07:58:34;13.90;99.90
19755;DHT22;10036;47.812;9.274;2023-10-13T08:01:06;14.00;99.90
19755;DHT22;10036;47.812;9.274;2023-10-13T08:03:33;14.10;99.90
19755;DHT22;10036;47.812;9.274;2023-10-13T08:06:16;14.10;99.90
19755;DHT22;10036;47.812;9.274;2023-10-13T08:08:51;14.30;99.90
19755;DHT22;10036;47.812;9.274;2023-10-13T08:11:24;14.50;99.90
19755;DHT22;10036;47.812;9.274;2023-10-13T08:13:57;14.50;99.90
19755;DHT22;10036;47.812;9.274;2023-10-13T08:16:28;14.50;99.90
19755;DHT22;10036;47.812;9.274;2023-10-13T08:19:11;14.60;99.90
19755;DHT22;10036;47.812;9.274;2023-10-13T08:21:42;14.70;99.90
19755;DHT22;10036;47.812;9.274;2023-10-13T08:24:15;14.70;99.90
19755;DHT22;10036;47.812;9.274;2023-10-13T08:26:42;14.80;99.90
19755;DHT22;10036;47.812;9.274;2023-10-13T08:29:41;14.90;99.90
19755;DHT22;10036;47.812;9.274;2023-10-13T08:32:40;15.10;99.90
19755;DHT22;10036;47.812;9.274;2023-10-13T08:35:22;15.30;99.90
19755;DHT22;10036;47.812;9.274;2023-10-13T08:38:01;15.40;99.90
19755;DHT22;10036;47.812;9.274;2023-10-13T08:40:43;15.50;99.90
19755;DHT22;10036;47.812;9.274;2023-10-13T08:43:32;15.60;99.90
19755;DHT22;10036;47.812;9.274;2023-10-13T08:46:11;15.70;99.90
19755;DHT22;10036;47.812;9.274;2023-10-13T08:48:57;15.80;99.90
19755;DHT22;10036;47.812;9.274;2023-10-13T08:51:43;15.90;99.90
19755;DHT22;10036;47.812;9.274;2023-10-13T08:54:16;16.00;99.90
19755;DHT22;10036;47.812;9.274;2023-10-13T08:57:00;16.10;99.90
19755;DHT22;10036;47.812;9.274;2023-10-13T08:59:45;16.30;99.90
19755;DHT22;10036;47.812;9.274;2023-10-13T09:02:20;16.40;99.90
19755;DHT22;10036;47.812;9.274;2023-10-13T09:04:48;16.50;99.90
19755;DHT22;10036;47.812;9.274;2023-10-13T09:07:25;16.70;99.90
19755;DHT22;10036;47.812;9.274;2023-10-13T09:09:52;16.70;99.90
19755;DHT22;10036;47.812;9.274;2023-10-13T09:12:39;16.80;99.90
19755;DHT22;10036;47.812;9.274;2023-10-13T09:15:29;16.90;99.90
19755;DHT22;10036;47.812;9.274;2023-10-13T09:18:10;17.10;99.90
19755;DHT22;10036;47.812;9.274;2023-10-13T09:20:40;17.10;99.90
19755;DHT22;10036;47.812;9.274;2023-10-13T09:23:13;17.20;99.90
19755;DHT22;10036;47.812;9.274;2023-10-13T09:25:51;17.20;99.90
19755;DHT22;10036;47.812;9.274;2023-10-13T09:28:24;17.40;99.90
19755;DHT22;10036;47.812;9.274;2023-10-13T09:30:54;17.60;99.90
19755;DHT22;10036;47.812;9.274;2023-10-13T09:33:23;17.70;99.90
19755;DHT22;10036;47.812;9.274;2023-10-13T09:35:58;17.80;99.90
19755;DHT22;10036;47.812;9.274;2023-10-13T09:38:26;17.80;99.90
19755;DHT22;10036;47.812;9.274;2023-10-13T09:40:54;17.90;99.90
19755;DHT22;10036;47.812;9.274;2023-10-13T09:43:23;17.90;99.90
19755;DHT22;10036;47.812;9.274;2023-10-13T09:45:53;18.00;99.90
19755;DHT22;10036;47.812;9.274;2023-10-13T09:48:32;18.00;99.90
19755;DHT22;10036;47.812;9.274;2023-10-13T09:51:01;18.00;99.90
19755;DHT22;10036;47.812;9.274;2023-10-13T09:53:31;18.10;99.90
19755;DHT22;10036;47.812;9.274;2023-10-13T09:56:03;18.20;99.90
19755;DHT22;10036;47.812;9.274;2023-10-13T09:58:47;18.30;99.90
19755;DHT22;10036;47.812;9.274;2023-10-13T10:01:19;18.50;99.90
19755;DHT22;10036;47.812;9.274;2023-10-13T10:04:06;18.60;99.90
19755;DHT22;10036;47.812;9.274;2023-10-13T10:06:33;18.50;99.90
19755;DHT22;10036;47.812;9.274;2023-10-13T10:09:10;18.70;99.90
19755;DHT22;10036;47.812;9.274;2023-10-13T10:15:13;18.70;99.90
19755;DHT22;10036;47.812;9.274;2023-10-13T10:17:54;19.10;99.90
19755;DHT22;10036;47.812;9.274;2023-10-13T10:20:28;19.20;99.90
19755;DHT22;10036;47.812;9.274;2023-10-13T10:23:05;19.20;99.90
19755;DHT22;10036;47.812;9.274;2023-10-13T10:25:36;19.30;99.90
19755;DHT22;10036;47.812;9.274;2023-10-13T10:28:06;19.60;99.90
19755;DHT22;10036;47.812;9.274;2023-10-13T10:30:34;19.80;99.90
19755;DHT22;10036;47.812;9.274;2023-10-13T10:33:04;20.10;99.90
19755;DHT22;10036;47.812;9.274;2023-10-13T10:35:38;20.20;99.90
19755;DHT22;10036;47.812;9.274;2023-10-13T10:38:13;20.20;99.90
19755;DHT22;10036;47.812;9.274;2023-10-13T10:40:51;20.20;99.90
19755;DHT22;10036;47.812;9.274;2023-10-13T10:45:54;20.30;99.90
19755;DHT22;10036;47.812;9.274;2023-10-13T10:48:25;20.20;99.90
19755;DHT22;10036;47.812;9.274;2023-10-13T10:50:57;20.20;99.90
19755;DHT22;10036;47.812;9.274;2023-10-13T10:53:25;20.20;99.90
19755;DHT22;10036;47.812;9.274;2023-10-13T10:56:04;20.30;99.90
19755;DHT22;10036;47.812;9.274;2023-10-13T10:58:35;20.40;99.90
19755;DHT22;10036;47.812;9.274;2023-10-13T11:01:09;20.80;99.90
19755;DHT22;10036;47.812;9.274;2023-10-13T11:03:37;20.90;99.90
19755;DHT22;10036;47.812;9.274;2023-10-13T11:06:12;20.80;99.90
19755;DHT22;10036;47.812;9.274;2023-10-13T11:08:42;21.10;99.90
19755;DHT22;10036;47.812;9.274;2023-10-13T11:11:27;21.10;99.90
19755;DHT22;10036;47.812;9.274;2023-10-13T11:13:57;21.20;99.90
19755;DHT22;10036;47.812;9.274;2023-10-13T11:16:45;21.40;99.90
19755;DHT22;10036;47.812;9.274;2023-10-13T11:19:16;21.20;99.90
19755;DHT22;10036;47.812;9.274;2023-10-13T11:21:46;21.30;99.90
19755;DHT22;10036;47.812;9.274;2023-10-13T11:24:13;21.40;99.90
19755;DHT22;10036;47.812;9.274;2023-10-13T11:26:43;21.30;99.90
19755;DHT22;10036;47.812;9.274;2023-10-13T11:29:16;21.30;99.90
19755;DHT22;10036;47.812;9.274;2023-10-13T11:31:46;21.40;99.90
19755;DHT22;10036;47.812;9.274;2023-10-13T11:34:16;21.60;99.90
19755;DHT22;10036;47.812;9.274;2023-10-13T11:36:43;21.50;99.90
19755;DHT22;10036;47.812;9.274;2023-10-13T11:39:10;21.60;99.90
19755;DHT22;10036;47.812;9.274;2023-10-13T11:41:43;21.50;99.90
19755;DHT22;10036;47.812;9.274;2023-10-13T11:44:17;21.60;99.90
19755;DHT22;10036;47.812;9.274;2023-10-13T11:46:56;21.50;99.90
19755;DHT22;10036;47.812;9.274;2023-10-13T11:49:32;21.40;99.90
19755;DHT22;10036;47.812;9.274;2023-10-13T11:52:03;21.50;99.90
19755;DHT22;10036;47.812;9.274;2023-10-13T11:54:45;21.70;99.90
19755;DHT22;10036;47.812;9.274;2023-10-13T11:57:12;21.80;99.90
19755;DHT22;10036;47.812;9.274;2023-10-13T11:59:43;21.70;99.90
19755;DHT22;10036;47.812;9.274;2023-10-13T12:02:21;21.60;99.90
19755;DHT22;10036;47.812;9.274;2023-10-13T12:05:06;21.80;99.90
19755;DHT22;10036;47.812;9.274;2023-10-13T12:07:42;21.90;99.90
19755;DHT22;10036;47.812;9.274;2023-10-13T12:10:14;22.00;99.90
19755;DHT22;10036;47.812;9.274;2023-10-13T12:12:59;22.00;99.90
19755;DHT22;10036;47.812;9.274;2023-10-13T12:15:32;22.20;99.90
19755;DHT22;10036;47.812;9.274;2023-10-13T12:18:17;22.20;99.90
19755;DHT22;10036;47.812;9.274;2023-10-13T12:20:44;22.20;99.90
19755;DHT22;10036;47.812;9.274;2023-10-13T12:25:43;22.10;99.90
19755;DHT22;10036;47.812;9.274;2023-10-13T12:28:25;22.50;99.90
19755;DHT22;10036;47.812;9.274;2023-10-13T12:30:56;22.50;99.90
19755;DHT22;10036;47.812;9.274;2023-10-13T12:33:25;22.50;99.90
19755;DHT22;10036;47.812;9.274;2023-10-13T12:35:56;22.50;99.90
19755;DHT22;10036;47.812;9.274;2023-10-13T12:38:35;22.70;99.90
19755;DHT22;10036;47.812;9.274;2023-10-13T12:41:47;22.70;99.90
19755;DHT22;10036;47.812;9.274;2023-10-13T12:44:31;22.70;99.90
19755;DHT22;10036;47.812;9.274;2023-10-13T12:47:29;22.80;99.90
19755;DHT22;10036;47.812;9.274;2023-10-13T12:50:13;23.00;99.90
19755;DHT22;10036;47.812;9.274;2023-10-13T12:52:51;23.10;99.90
19755;DHT22;10036;47.812;9.274;2023-10-13T12:55:18;23.30;99.90
19755;DHT22;10036;47.812;9.274;2023-10-13T12:57:50;23.20;99.90
19755;DHT22;10036;47.812;9.274;2023-10-13T13:00:17;23.30;99.90
19755;DHT22;10036;47.812;9.274;2023-10-13T13:02:51;23.30;99.90
19755;DHT22;10036;47.812;9.274;2023-10-13T13:05:21;23.40;99.90
19755;DHT22;10036;47.812;9.274;2023-10-13T13:07:54;23.50;99.90
19755;DHT22;10036;47.812;9.274;2023-10-13T13:10:21;23.70;99.90
19755;DHT22;10036;47.812;9.274;2023-10-13T13:13:01;23.80;99.90
19755;DHT22;10036;47.812;9.274;2023-10-13T13:15:28;23.60;99.90
19755;DHT22;10036;47.812;9.274;2023-10-13T13:17:56;23.60;99.90
19755;DHT22;10036;47.812;9.274;2023-10-13T13:20:23;23.60;99.90
19755;DHT22;10036;47.812;9.274;2023-10-13T13:22:55;23.70;99.90
19755;DHT22;10036;47.812;9.274;2023-10-13T13:25:28;23.70;99.90
19755;DHT22;10036;47.812;9.274;2023-10-13T13:27:56;23.70;99.90
19755;DHT22;10036;47.812;9.274;2023-10-13T13:30:24;23.80;99.90
19755;DHT22;10036;47.812;9.274;2023-10-13T13:32:57;23.90;99.90
19755;DHT22;10036;47.812;9.274;2023-10-13T13:35:29;24.00;99.90
19755;DHT22;10036;47.812;9.274;2023-10-13T13:38:00;24.00;99.90
19755;DHT22;10036;47.812;9.274;2023-10-13T13:40:38;24.00;99.90
19755;DHT22;10036;47.812;9.274;2023-10-13T13:43:05;24.10;99.90
19755;DHT22;10036;47.812;9.274;2023-10-13T13:45:32;24.20;99.90
19755;DHT22;10036;47.812;9.274;2023-10-13T13:48:01;24.20;99.90
19755;DHT22;10036;47.812;9.274;2023-10-13T13:50:33;24.20;99.90
19755;DHT22;10036;47.812;9.274;2023-10-13T13:53:06;24.30;99.90
19755;DHT22;10036;47.812;9.274;2023-10-13T13:55:35;24.20;99.90
19755;DHT22;10036;47.812;9.274;2023-10-13T13:58:05;24.20;99.90
19755;DHT22;10036;47.812;9.274;2023-10-13T14:00:34;24.40;99.90
19755;DHT22;10036;47.812;9.274;2023-10-13T14:03:06;24.40;99.90
19755;DHT22;10036;47.812;9.274;2023-10-13T14:05:40;24.40;99.90
19755;DHT22;10036;47.812;9.274;2023-10-13T14:08:07;24.50;99.90
19755;DHT22;10036;47.812;9.274;2023-10-13T14:10:37;24.40;99.90
19755;DHT22;10036;47.812;9.274;2023-10-13T14:13:31;24.50;99.90
19755;DHT22;10036;47.812;9.274;2023-10-13T14:16:11;24.40;99.90
19755;DHT22;10036;47.812;9.274;2023-10-13T14:18:44;24.60;99.90
19755;DHT22;10036;47.812;9.274;2023-10-13T14:21:11;24.60;99.90
19755;DHT22;10036;47.812;9.274;2023-10-13T14:23:43;24.60;99.90
19755;DHT22;10036;47.812;9.274;2023-10-13T14:26:12;24.60;99.90
19755;DHT22;10036;47.812;9.274;2023-10-13T14:28:39;24.60;99.90
19755;DHT22;10036;47.812;9.274;2023-10-13T14:31:16;24.70;99.90
19755;DHT22;10036;47.812;9.274;2023-10-13T14:33:46;24.70;99.90
19755;DHT22;10036;47.812;9.274;2023-10-13T14:36:13;24.70;99.90
19755;DHT22;10036;47.812;9.274;2023-10-13T14:38:45;24.70;99.90
19755;DHT22;10036;47.812;9.274;2023-10-13T14:41:15;24.80;99.90
19755;DHT22;10036;47.812;9.274;2023-10-13T14:43:42;24.90;99.90
19755;DHT22;10036;47.812;9.274;2023-10-13T14:46:13;24.80;99.90
19755;DHT22;10036;47.812;9.274;2023-10-13T14:48:41;24.70;99.90
19755;DHT22;10036;47.812;9.274;2023-10-13T14:51:13;24.70;99.90
19755;DHT22;10036;47.812;9.274;2023-10-13T14:53:40;24.60;99.90
19755;DHT22;10036;47.812;9.274;2023-10-13T14:56:10;24.50;99.90
19755;DHT22;10036;47.812;9.274;2023-10-13T14:58:38;24.40;99.90
19755;DHT22;10036;47.812;9.274;2023-10-13T15:01:11;24.40;99.90
19755;DHT22;10036;47.812;9.274;2023-10-13T15:03:41;24.30;99.90
19755;DHT22;10036;47.812;9.274;2023-10-13T15:06:15;24.30;99.90
19755;DHT22;10036;47.812;9.274;2023-10-13T15:08:44;24.30;99.90
19755;DHT22;10036;47.812;9.274;2023-10-13T15:11:11;24.30;99.90
19755;DHT22;10036;47.812;9.274;2023-10-13T15:13:39;24.30;99.90
19755;DHT22;10036;47.812;9.274;2023-10-13T15:16:13;24.30;99.90
19755;DHT22;10036;47.812;9.274;2023-10-13T15:18:42;24.30;99.90
19755;DHT22;10036;47.812;9.274;2023-10-13T15:21:09;24.10;99.90
19755;DHT22;10036;47.812;9.274;2023-10-13T15:23:39;24.10;99.90
19755;DHT22;10036;47.812;9.274;2023-10-13T15:26:09;24.10;99.90
19755;DHT22;10036;47.812;9.274;2023-10-13T15:28:39;24.00;99.90
19755;DHT22;10036;47.812;9.274;2023-10-13T15:31:14;23.90;99.90
19755;DHT22;10036;47.812;9.274;2023-10-13T15:33:52;23.70;99.90
19755;DHT22;10036;47.812;9.274;2023-10-13T15:36:21;23.70;99.90
19755;DHT22;10036;47.812;9.274;2023-10-13T15:38:50;23.60;99.90
19755;DHT22;10036;47.812;9.274;2023-10-13T15:41:22;23.60;99.90
19755;DHT22;10036;47.812;9.274;2023-10-13T15:43:49;23.60;99.90
19755;DHT22;10036;47.812;9.274;2023-10-13T15:46:17;23.60;99.90
19755;DHT22;10036;47.812;9.274;2023-10-13T15:48:43;23.40;99.90
19755;DHT22;10036;47.812;9.274;2023-10-13T15:51:11;23.30;99.90
19755;DHT22;10036;47.812;9.274;2023-10-13T15:53:39;23.20;99.90
19755;DHT22;10036;47.812;9.274;2023-10-13T15:56:07;23.20;99.90
19755;DHT22;10036;47.812;9.274;2023-10-13T15:58:37;23.00;99.90
19755;DHT22;10036;47.812;9.274;2023-10-13T16:01:04;22.90;99.90
19755;DHT22;10036;47.812;9.274;2023-10-13T16:03:33;22.80;99.90
19755;DHT22;10036;47.812;9.274;2023-10-13T16:06:02;22.80;99.90
19755;DHT22;10036;47.812;9.274;2023-10-13T16:08:35;22.60;99.90
19755;DHT22;10036;47.812;9.274;2023-10-13T16:11:08;22.50;99.90
19755;DHT22;10036;47.812;9.274;2023-10-13T16:13:39;22.30;99.90
19755;DHT22;10036;47.812;9.274;2023-10-13T16:16:06;22.10;99.90
19755;DHT22;10036;47.812;9.274;2023-10-13T16:18:40;21.90;99.90
19755;DHT22;10036;47.812;9.274;2023-10-13T16:21:09;21.80;99.90